sensor_id;sensor_type;location;lat;lon;timestamp;P1;durP1;ratioP1;P2;durP2;ratioP2
67861;SDS011;54665;51.462;6.698;2023-05-07T00:01:48;11.93;;;7.23;;
67861;SDS011;54665;51.462;6.698;2023-05-07T00:04:13;12.57;;;7.30;;
67861;SDS011;54665;51.462;6.698;2023-05-07T00:06:38;11.50;;;7.10;;
67861;SDS011;54665;51.462;6.698;2023-05-07T00:09:05;10.90;;;7.05;;
67861;SDS011;54665;51.462;6.698;2023-05-07T00:11:31;11.77;;;7.20;;
67861;SDS011;54665;51.462;6.698;2023-05-07T00:13:57;10.32;;;6.90;;
67861;SDS011;54665;51.462;6.698;2023-05-07T00:16:22;12.20;;;7.60;;
67861;SDS011;54665;51.462;6.698;2023-05-07T00:18:47;11.67;;;7.57;;
67861;SDS011;54665;51.462;6.698;2023-05-07T00:21:13;14.00;;;8.13;;
67861;SDS011;54665;51.462;6.698;2023-05-07T00:23:38;13.38;;;8.02;;
67861;SDS011;54665;51.462;6.698;2023-05-07T00:26:04;13.37;;;7.80;;
67861;SDS011;54665;51.462;6.698;2023-05-07T00:28:29;13.93;;;8.27;;
67861;SDS011;54665;51.462;6.698;2023-05-07T00:30:55;13.70;;;8.57;;
67861;SDS011;54665;51.462;6.698;2023-05-07T00:33:20;18.03;;;9.97;;
67861;SDS011;54665;51.462;6.698;2023-05-07T00:35:47;17.05;;;9.40;;
67861;SDS011;54665;51.462;6.698;2023-05-07T00:38:13;14.23;;;9.03;;
67861;SDS011;54665;51.462;6.698;2023-05-07T00:40:38;15.63;;;9.23;;
67861;SDS011;54665;51.462;6.698;2023-05-07T00:43:04;18.10;;;10.43;;
67861;SDS011;54665;51.462;6.698;2023-05-07T00:45:29;16.67;;;9.83;;
67861;SDS011;54665;51.462;6.698;2023-05-07T00:47:55;18.40;;;10.32;;
67861;SDS011;54665;51.462;6.698;2023-05-07T00:50:24;17.95;;;10.05;;
67861;SDS011;54665;51.462;6.698;2023-05-07T00:52:50;17.10;;;10.53;;
67861;SDS011;54665;51.462;6.698;2023-05-07T00:55:16;17.55;;;10.75;;
67861;SDS011;54665;51.462;6.698;2023-05-07T00:57:42;19.07;;;11.53;;
67861;SDS011;54665;51.462;6.698;2023-05-07T01:00:08;20.15;;;12.05;;
67861;SDS011;54665;51.462;6.698;2023-05-07T01:02:35;19.57;;;11.57;;
67861;SDS011;54665;51.462;6.698;2023-05-07T01:05:01;15.25;;;10.13;;
67861;SDS011;54665;51.462;6.698;2023-05-07T01:07:28;20.10;;;10.98;;
67861;SDS011;54665;51.462;6.698;2023-05-07T01:09:54;17.67;;;11.13;;
67861;SDS011;54665;51.462;6.698;2023-05-07T01:12:20;19.47;;;11.17;;
67861;SDS011;54665;51.462;6.698;2023-05-07T01:14:46;19.08;;;11.30;;
67861;SDS011;54665;51.462;6.698;2023-05-07T01:17:11;19.50;;;11.27;;
67861;SDS011;54665;51.462;6.698;2023-05-07T01:19:37;20.88;;;11.90;;
67861;SDS011;54665;51.462;6.698;2023-05-07T01:22:03;19.90;;;12.03;;
67861;SDS011;54665;51.462;6.698;2023-05-07T01:24:40;21.92;;;12.60;;
67861;SDS011;54665;51.462;6.698;2023-05-07T01:27:07;19.50;;;11.23;;
67861;SDS011;54665;51.462;6.698;2023-05-07T01:29:33;18.77;;;11.05;;
67861;SDS011;54665;51.462;6.698;2023-05-07T01:32:00;21.43;;;11.30;;
67861;SDS011;54665;51.462;6.698;2023-05-07T01:34:28;20.35;;;11.80;;
67861;SDS011;54665;51.462;6.698;2023-05-07T01:36:56;20.85;;;11.23;;
67861;SDS011;54665;51.462;6.698;2023-05-07T01:39:27;22.63;;;12.20;;
67861;SDS011;54665;51.462;6.698;2023-05-07T01:41:56;21.75;;;12.18;;
67861;SDS011;54665;51.462;6.698;2023-05-07T01:44:24;25.63;;;13.30;;
67861;SDS011;54665;51.462;6.698;2023-05-07T01:46:51;21.10;;;12.70;;
67861;SDS011;54665;51.462;6.698;2023-05-07T01:49:16;23.10;;;12.82;;
67861;SDS011;54665;51.462;6.698;2023-05-07T01:51:42;23.37;;;12.77;;
67861;SDS011;54665;51.462;6.698;2023-05-07T01:54:08;23.08;;;13.75;;
67861;SDS011;54665;51.462;6.698;2023-05-07T01:56:34;25.98;;;13.75;;
67861;SDS011;54665;51.462;6.698;2023-05-07T01:59:00;22.20;;;13.50;;
67861;SDS011;54665;51.462;6.698;2023-05-07T02:01:27;23.40;;;13.20;;
67861;SDS011;54665;51.462;6.698;2023-05-07T02:03:52;25.15;;;13.60;;
67861;SDS011;54665;51.462;6.698;2023-05-07T02:06:23;26.60;;;14.18;;
67861;SDS011;54665;51.462;6.698;2023-05-07T02:08:50;25.08;;;14.15;;
67861;SDS011;54665;51.462;6.698;2023-05-07T02:11:16;26.17;;;14.30;;
67861;SDS011;54665;51.462;6.698;2023-05-07T02:13:41;22.52;;;13.05;;
67861;SDS011;54665;51.462;6.698;2023-05-07T02:16:07;25.13;;;13.53;;
67861;SDS011;54665;51.462;6.698;2023-05-07T02:18:32;28.87;;;13.27;;
67861;SDS011;54665;51.462;6.698;2023-05-07T02:20:59;26.27;;;14.35;;
67861;SDS011;54665;51.462;6.698;2023-05-07T02:23:24;25.57;;;13.70;;
67861;SDS011;54665;51.462;6.698;2023-05-07T02:25:50;25.58;;;14.10;;
67861;SDS011;54665;51.462;6.698;2023-05-07T02:28:16;25.90;;;14.20;;
67861;SDS011;54665;51.462;6.698;2023-05-07T02:30:48;24.50;;;14.30;;
67861;SDS011;54665;51.462;6.698;2023-05-07T02:33:14;25.90;;;14.87;;
67861;SDS011;54665;51.462;6.698;2023-05-07T02:35:40;25.23;;;13.73;;
67861;SDS011;54665;51.462;6.698;2023-05-07T02:38:05;24.53;;;14.00;;
67861;SDS011;54665;51.462;6.698;2023-05-07T02:40:32;25.02;;;13.57;;
67861;SDS011;54665;51.462;6.698;2023-05-07T02:42:58;25.85;;;13.45;;
67861;SDS011;54665;51.462;6.698;2023-05-07T02:45:24;26.63;;;13.63;;
67861;SDS011;54665;51.462;6.698;2023-05-07T02:47:52;22.95;;;13.45;;
67861;SDS011;54665;51.462;6.698;2023-05-07T02:50:18;25.63;;;14.05;;
67861;SDS011;54665;51.462;6.698;2023-05-07T02:52:43;25.50;;;14.00;;
67861;SDS011;54665;51.462;6.698;2023-05-07T02:55:09;30.87;;;15.90;;
67861;SDS011;54665;51.462;6.698;2023-05-07T02:57:34;30.80;;;16.57;;
67861;SDS011;54665;51.462;6.698;2023-05-07T03:00:06;28.77;;;16.33;;
67861;SDS011;54665;51.462;6.698;2023-05-07T03:02:36;34.17;;;17.23;;
67861;SDS011;54665;51.462;6.698;2023-05-07T03:05:01;37.93;;;19.43;;
67861;SDS011;54665;51.462;6.698;2023-05-07T03:07:26;35.07;;;18.23;;
67861;SDS011;54665;51.462;6.698;2023-05-07T03:09:52;34.53;;;18.17;;
67861;SDS011;54665;51.462;6.698;2023-05-07T03:12:18;34.75;;;18.02;;
67861;SDS011;54665;51.462;6.698;2023-05-07T03:14:44;34.00;;;18.20;;
67861;SDS011;54665;51.462;6.698;2023-05-07T03:17:09;36.67;;;18.35;;
67861;SDS011;54665;51.462;6.698;2023-05-07T03:19:35;36.17;;;18.73;;
67861;SDS011;54665;51.462;6.698;2023-05-07T03:22:00;37.60;;;18.53;;
67861;SDS011;54665;51.462;6.698;2023-05-07T03:24:26;43.45;;;19.25;;
67861;SDS011;54665;51.462;6.698;2023-05-07T03:26:51;37.23;;;18.30;;
67861;SDS011;54665;51.462;6.698;2023-05-07T03:29:17;37.03;;;18.77;;
67861;SDS011;54665;51.462;6.698;2023-05-07T03:31:42;35.22;;;17.88;;
67861;SDS011;54665;51.462;6.698;2023-05-07T03:34:08;33.57;;;17.27;;
67861;SDS011;54665;51.462;6.698;2023-05-07T03:36:33;32.30;;;16.73;;
67861;SDS011;54665;51.462;6.698;2023-05-07T03:38:59;32.77;;;17.43;;
67861;SDS011;54665;51.462;6.698;2023-05-07T03:41:32;35.90;;;18.02;;
67861;SDS011;54665;51.462;6.698;2023-05-07T03:43:58;38.10;;;17.57;;
67861;SDS011;54665;51.462;6.698;2023-05-07T03:46:23;37.17;;;17.90;;
67861;SDS011;54665;51.462;6.698;2023-05-07T03:48:51;38.97;;;18.90;;
67861;SDS011;54665;51.462;6.698;2023-05-07T03:51:18;35.88;;;18.83;;
67861;SDS011;54665;51.462;6.698;2023-05-07T03:53:44;37.35;;;18.70;;
67861;SDS011;54665;51.462;6.698;2023-05-07T03:56:10;37.03;;;17.97;;
67861;SDS011;54665;51.462;6.698;2023-05-07T03:58:38;38.30;;;19.08;;
67861;SDS011;54665;51.462;6.698;2023-05-07T04:01:07;41.75;;;20.00;;
67861;SDS011;54665;51.462;6.698;2023-05-07T04:03:33;39.93;;;20.87;;
67861;SDS011;54665;51.462;6.698;2023-05-07T04:05:59;39.45;;;19.92;;
67861;SDS011;54665;51.462;6.698;2023-05-07T04:08:24;43.77;;;20.47;;
67861;SDS011;54665;51.462;6.698;2023-05-07T04:11:01;44.50;;;19.85;;
67861;SDS011;54665;51.462;6.698;2023-05-07T04:13:30;39.45;;;19.65;;
67861;SDS011;54665;51.462;6.698;2023-05-07T04:15:56;41.45;;;19.25;;
67861;SDS011;54665;51.462;6.698;2023-05-07T04:18:23;39.53;;;18.70;;
67861;SDS011;54665;51.462;6.698;2023-05-07T04:20:48;36.07;;;17.87;;
67861;SDS011;54665;51.462;6.698;2023-05-07T04:23:17;39.42;;;18.75;;
67861;SDS011;54665;51.462;6.698;2023-05-07T04:25:43;37.00;;;19.08;;
67861;SDS011;54665;51.462;6.698;2023-05-07T04:28:20;34.70;;;17.98;;
67861;SDS011;54665;51.462;6.698;2023-05-07T04:30:45;35.90;;;18.10;;
67861;SDS011;54665;51.462;6.698;2023-05-07T04:33:11;41.10;;;19.80;;
67861;SDS011;54665;51.462;6.698;2023-05-07T04:35:40;39.28;;;20.08;;
67861;SDS011;54665;51.462;6.698;2023-05-07T04:38:06;41.20;;;20.10;;
67861;SDS011;54665;51.462;6.698;2023-05-07T04:40:32;37.50;;;18.80;;
67861;SDS011;54665;51.462;6.698;2023-05-07T04:43:01;40.97;;;19.88;;
67861;SDS011;54665;51.462;6.698;2023-05-07T04:45:29;38.47;;;19.60;;
67861;SDS011;54665;51.462;6.698;2023-05-07T04:47:55;38.97;;;19.33;;
67861;SDS011;54665;51.462;6.698;2023-05-07T04:50:20;37.78;;;18.23;;
67861;SDS011;54665;51.462;6.698;2023-05-07T04:52:49;36.60;;;18.73;;
67861;SDS011;54665;51.462;6.698;2023-05-07T04:55:14;37.05;;;19.30;;
67861;SDS011;54665;51.462;6.698;2023-05-07T04:57:40;36.03;;;17.73;;
67861;SDS011;54665;51.462;6.698;2023-05-07T05:00:09;38.05;;;18.42;;
67861;SDS011;54665;51.462;6.698;2023-05-07T05:02:37;40.38;;;19.08;;
67861;SDS011;54665;51.462;6.698;2023-05-07T05:05:02;40.13;;;19.65;;
67861;SDS011;54665;51.462;6.698;2023-05-07T05:07:28;41.03;;;19.03;;
67861;SDS011;54665;51.462;6.698;2023-05-07T05:09:54;38.55;;;18.42;;
67861;SDS011;54665;51.462;6.698;2023-05-07T05:12:21;35.07;;;18.40;;
67861;SDS011;54665;51.462;6.698;2023-05-07T05:14:46;36.50;;;18.95;;
67861;SDS011;54665;51.462;6.698;2023-05-07T05:17:12;37.97;;;19.07;;
67861;SDS011;54665;51.462;6.698;2023-05-07T05:19:38;39.88;;;18.98;;
67861;SDS011;54665;51.462;6.698;2023-05-07T05:22:03;38.80;;;19.33;;
67861;SDS011;54665;51.462;6.698;2023-05-07T05:24:30;38.35;;;18.77;;
67861;SDS011;54665;51.462;6.698;2023-05-07T05:26:56;36.70;;;18.40;;
67861;SDS011;54665;51.462;6.698;2023-05-07T05:29:22;36.10;;;18.33;;
67861;SDS011;54665;51.462;6.698;2023-05-07T05:31:47;36.35;;;18.30;;
67861;SDS011;54665;51.462;6.698;2023-05-07T05:34:13;37.53;;;17.27;;
67861;SDS011;54665;51.462;6.698;2023-05-07T05:36:39;34.42;;;17.67;;
67861;SDS011;54665;51.462;6.698;2023-05-07T05:39:05;31.70;;;16.90;;
67861;SDS011;54665;51.462;6.698;2023-05-07T05:41:31;27.23;;;15.85;;
67861;SDS011;54665;51.462;6.698;2023-05-07T05:43:56;29.03;;;16.77;;
67861;SDS011;54665;51.462;6.698;2023-05-07T05:46:22;35.00;;;18.27;;
67861;SDS011;54665;51.462;6.698;2023-05-07T05:48:50;32.15;;;17.23;;
67861;SDS011;54665;51.462;6.698;2023-05-07T05:51:15;31.07;;;16.53;;
67861;SDS011;54665;51.462;6.698;2023-05-07T05:53:41;29.80;;;15.43;;
67861;SDS011;54665;51.462;6.698;2023-05-07T05:56:07;29.30;;;16.70;;
67861;SDS011;54665;51.462;6.698;2023-05-07T05:58:33;24.42;;;14.50;;
67861;SDS011;54665;51.462;6.698;2023-05-07T06:01:03;27.45;;;14.88;;
67861;SDS011;54665;51.462;6.698;2023-05-07T06:03:29;25.00;;;14.25;;
67861;SDS011;54665;51.462;6.698;2023-05-07T06:05:57;25.10;;;12.77;;
67861;SDS011;54665;51.462;6.698;2023-05-07T06:08:22;19.67;;;12.13;;
67861;SDS011;54665;51.462;6.698;2023-05-07T06:10:48;21.73;;;12.37;;
67861;SDS011;54665;51.462;6.698;2023-05-07T06:13:14;23.13;;;12.85;;
67861;SDS011;54665;51.462;6.698;2023-05-07T06:15:41;19.77;;;12.20;;
67861;SDS011;54665;51.462;6.698;2023-05-07T06:18:09;17.77;;;11.02;;
67861;SDS011;54665;51.462;6.698;2023-05-07T06:20:34;19.23;;;11.40;;
67861;SDS011;54665;51.462;6.698;2023-05-07T06:23:02;19.27;;;11.75;;
67861;SDS011;54665;51.462;6.698;2023-05-07T06:25:30;19.23;;;10.70;;
67861;SDS011;54665;51.462;6.698;2023-05-07T06:27:55;18.33;;;10.23;;
67861;SDS011;54665;51.462;6.698;2023-05-07T06:30:23;17.05;;;9.77;;
67861;SDS011;54665;51.462;6.698;2023-05-07T06:32:49;16.27;;;9.13;;
67861;SDS011;54665;51.462;6.698;2023-05-07T06:35:14;14.23;;;8.95;;
67861;SDS011;54665;51.462;6.698;2023-05-07T06:37:41;13.60;;;8.23;;
67861;SDS011;54665;51.462;6.698;2023-05-07T06:40:11;12.80;;;7.60;;
67861;SDS011;54665;51.462;6.698;2023-05-07T06:42:38;11.80;;;7.65;;
67861;SDS011;54665;51.462;6.698;2023-05-07T06:45:22;11.90;;;6.83;;
67861;SDS011;54665;51.462;6.698;2023-05-07T06:47:49;12.05;;;7.20;;
67861;SDS011;54665;51.462;6.698;2023-05-07T06:50:14;13.00;;;6.85;;
67861;SDS011;54665;51.462;6.698;2023-05-07T06:52:42;11.63;;;6.85;;
67861;SDS011;54665;51.462;6.698;2023-05-07T06:55:09;10.07;;;6.50;;
67861;SDS011;54665;51.462;6.698;2023-05-07T06:57:34;10.15;;;6.53;;
67861;SDS011;54665;51.462;6.698;2023-05-07T07:00:00;16.10;;;6.43;;
67861;SDS011;54665;51.462;6.698;2023-05-07T07:02:26;10.33;;;6.03;;
67861;SDS011;54665;51.462;6.698;2023-05-07T07:04:51;12.60;;;6.70;;
67861;SDS011;54665;51.462;6.698;2023-05-07T07:07:16;9.17;;;6.00;;
67861;SDS011;54665;51.462;6.698;2023-05-07T07:09:44;11.15;;;6.20;;
67861;SDS011;54665;51.462;6.698;2023-05-07T07:12:12;10.90;;;6.10;;
67861;SDS011;54665;51.462;6.698;2023-05-07T07:14:39;9.13;;;5.77;;
67861;SDS011;54665;51.462;6.698;2023-05-07T07:17:05;8.38;;;4.90;;
67861;SDS011;54665;51.462;6.698;2023-05-07T07:19:30;8.55;;;5.22;;
67861;SDS011;54665;51.462;6.698;2023-05-07T07:21:57;7.73;;;5.10;;
67861;SDS011;54665;51.462;6.698;2023-05-07T07:24:22;7.57;;;5.03;;
67861;SDS011;54665;51.462;6.698;2023-05-07T07:26:52;7.87;;;4.70;;
67861;SDS011;54665;51.462;6.698;2023-05-07T07:29:19;9.40;;;5.10;;
67861;SDS011;54665;51.462;6.698;2023-05-07T07:31:45;8.40;;;5.05;;
67861;SDS011;54665;51.462;6.698;2023-05-07T07:34:11;9.82;;;5.65;;
67861;SDS011;54665;51.462;6.698;2023-05-07T07:36:37;8.90;;;5.00;;
67861;SDS011;54665;51.462;6.698;2023-05-07T07:39:03;8.30;;;5.00;;
67861;SDS011;54665;51.462;6.698;2023-05-07T07:41:28;7.23;;;4.53;;
67861;SDS011;54665;51.462;6.698;2023-05-07T07:43:54;8.40;;;5.17;;
67861;SDS011;54665;51.462;6.698;2023-05-07T07:46:20;8.88;;;5.00;;
67861;SDS011;54665;51.462;6.698;2023-05-07T07:48:47;8.48;;;4.90;;
67861;SDS011;54665;51.462;6.698;2023-05-07T07:51:12;8.47;;;5.03;;
67861;SDS011;54665;51.462;6.698;2023-05-07T07:53:38;8.70;;;4.97;;
67861;SDS011;54665;51.462;6.698;2023-05-07T07:56:03;10.18;;;5.07;;
67861;SDS011;54665;51.462;6.698;2023-05-07T07:58:31;7.63;;;4.72;;
67861;SDS011;54665;51.462;6.698;2023-05-07T08:00:57;7.07;;;4.73;;
67861;SDS011;54665;51.462;6.698;2023-05-07T08:03:24;6.03;;;4.07;;
67861;SDS011;54665;51.462;6.698;2023-05-07T08:05:53;6.57;;;3.70;;
67861;SDS011;54665;51.462;6.698;2023-05-07T08:08:18;5.83;;;3.40;;
67861;SDS011;54665;51.462;6.698;2023-05-07T08:10:44;6.03;;;3.60;;
67861;SDS011;54665;51.462;6.698;2023-05-07T08:13:18;8.57;;;4.10;;
67861;SDS011;54665;51.462;6.698;2023-05-07T08:15:43;7.37;;;3.80;;
67861;SDS011;54665;51.462;6.698;2023-05-07T08:18:10;6.40;;;3.80;;
67861;SDS011;54665;51.462;6.698;2023-05-07T08:20:36;7.40;;;3.20;;
67861;SDS011;54665;51.462;6.698;2023-05-07T08:23:05;4.80;;;2.80;;
67861;SDS011;54665;51.462;6.698;2023-05-07T08:25:33;6.37;;;2.70;;
67861;SDS011;54665;51.462;6.698;2023-05-07T08:27:59;5.15;;;2.70;;
67861;SDS011;54665;51.462;6.698;2023-05-07T08:30:25;4.55;;;2.85;;
67861;SDS011;54665;51.462;6.698;2023-05-07T08:32:52;4.45;;;2.90;;
67861;SDS011;54665;51.462;6.698;2023-05-07T08:35:17;6.67;;;2.80;;
67861;SDS011;54665;51.462;6.698;2023-05-07T08:37:42;3.67;;;2.40;;
67861;SDS011;54665;51.462;6.698;2023-05-07T08:40:09;4.57;;;2.80;;
67861;SDS011;54665;51.462;6.698;2023-05-07T08:42:36;4.40;;;2.92;;
67861;SDS011;54665;51.462;6.698;2023-05-07T08:45:05;4.40;;;2.90;;
67861;SDS011;54665;51.462;6.698;2023-05-07T08:47:44;7.43;;;2.90;;
67861;SDS011;54665;51.462;6.698;2023-05-07T08:50:13;3.43;;;2.50;;
67861;SDS011;54665;51.462;6.698;2023-05-07T08:52:40;4.65;;;3.15;;
67861;SDS011;54665;51.462;6.698;2023-05-07T08:55:07;5.07;;;2.70;;
67861;SDS011;54665;51.462;6.698;2023-05-07T08:57:33;3.97;;;2.83;;
67861;SDS011;54665;51.462;6.698;2023-05-07T08:59:58;4.22;;;2.75;;
67861;SDS011;54665;51.462;6.698;2023-05-07T09:02:24;4.50;;;2.63;;
67861;SDS011;54665;51.462;6.698;2023-05-07T09:04:50;4.57;;;2.90;;
67861;SDS011;54665;51.462;6.698;2023-05-07T09:07:16;7.60;;;3.92;;
67861;SDS011;54665;51.462;6.698;2023-05-07T09:09:43;7.17;;;3.47;;
67861;SDS011;54665;51.462;6.698;2023-05-07T09:12:10;5.47;;;3.60;;
67861;SDS011;54665;51.462;6.698;2023-05-07T09:14:36;6.07;;;3.70;;
67861;SDS011;54665;51.462;6.698;2023-05-07T09:17:02;6.57;;;3.70;;
67861;SDS011;54665;51.462;6.698;2023-05-07T09:19:28;5.45;;;3.60;;
67861;SDS011;54665;51.462;6.698;2023-05-07T09:21:58;4.80;;;3.00;;
67861;SDS011;54665;51.462;6.698;2023-05-07T09:24:25;5.40;;;3.67;;
67861;SDS011;54665;51.462;6.698;2023-05-07T09:26:52;5.50;;;3.43;;
67861;SDS011;54665;51.462;6.698;2023-05-07T09:29:17;5.07;;;3.20;;
67861;SDS011;54665;51.462;6.698;2023-05-07T09:31:44;4.43;;;2.90;;
67861;SDS011;54665;51.462;6.698;2023-05-07T09:34:13;3.83;;;2.70;;
67861;SDS011;54665;51.462;6.698;2023-05-07T09:36:41;5.43;;;2.75;;
67861;SDS011;54665;51.462;6.698;2023-05-07T09:39:07;5.07;;;2.70;;
67861;SDS011;54665;51.462;6.698;2023-05-07T09:41:32;4.53;;;2.70;;
67861;SDS011;54665;51.462;6.698;2023-05-07T09:44:07;4.32;;;2.35;;
67861;SDS011;54665;51.462;6.698;2023-05-07T09:46:38;4.28;;;2.50;;
67861;SDS011;54665;51.462;6.698;2023-05-07T09:49:16;4.53;;;2.50;;
67861;SDS011;54665;51.462;6.698;2023-05-07T09:51:50;6.10;;;2.67;;
67861;SDS011;54665;51.462;6.698;2023-05-07T09:54:18;3.88;;;2.40;;
67861;SDS011;54665;51.462;6.698;2023-05-07T09:56:50;3.50;;;2.60;;
67861;SDS011;54665;51.462;6.698;2023-05-07T09:59:18;3.92;;;2.83;;
67861;SDS011;54665;51.462;6.698;2023-05-07T10:01:46;4.43;;;2.70;;
67861;SDS011;54665;51.462;6.698;2023-05-07T10:04:13;3.00;;;2.17;;
67861;SDS011;54665;51.462;6.698;2023-05-07T10:06:41;3.85;;;2.10;;
67861;SDS011;54665;51.462;6.698;2023-05-07T10:09:09;3.03;;;1.80;;
67861;SDS011;54665;51.462;6.698;2023-05-07T10:11:35;3.38;;;2.10;;
67861;SDS011;54665;51.462;6.698;2023-05-07T10:14:02;3.70;;;2.40;;
67861;SDS011;54665;51.462;6.698;2023-05-07T10:16:32;3.20;;;2.03;;
67861;SDS011;54665;51.462;6.698;2023-05-07T10:19:02;3.15;;;2.20;;
67861;SDS011;54665;51.462;6.698;2023-05-07T10:21:29;3.30;;;2.10;;
67861;SDS011;54665;51.462;6.698;2023-05-07T10:24:00;3.25;;;2.20;;
67861;SDS011;54665;51.462;6.698;2023-05-07T10:26:31;4.38;;;2.38;;
67861;SDS011;54665;51.462;6.698;2023-05-07T10:29:03;3.80;;;2.30;;
67861;SDS011;54665;51.462;6.698;2023-05-07T10:34:07;3.88;;;2.20;;
67861;SDS011;54665;51.462;6.698;2023-05-07T10:36:35;4.38;;;2.30;;
67861;SDS011;54665;51.462;6.698;2023-05-07T10:39:01;5.40;;;2.10;;
67861;SDS011;54665;51.462;6.698;2023-05-07T10:41:27;3.63;;;2.30;;
67861;SDS011;54665;51.462;6.698;2023-05-07T10:43:52;3.40;;;2.38;;
67861;SDS011;54665;51.462;6.698;2023-05-07T10:46:23;4.63;;;2.60;;
67861;SDS011;54665;51.462;6.698;2023-05-07T10:51:34;3.97;;;2.50;;
67861;SDS011;54665;51.462;6.698;2023-05-07T10:56:41;3.90;;;2.28;;
67861;SDS011;54665;51.462;6.698;2023-05-07T11:02:02;4.78;;;2.50;;
67861;SDS011;54665;51.462;6.698;2023-05-07T11:08:16;5.47;;;2.92;;
67861;SDS011;54665;51.462;6.698;2023-05-07T11:10:53;5.68;;;2.92;;
67861;SDS011;54665;51.462;6.698;2023-05-07T11:13:41;3.50;;;2.67;;
67861;SDS011;54665;51.462;6.698;2023-05-07T11:16:24;5.15;;;2.80;;
67861;SDS011;54665;51.462;6.698;2023-05-07T11:19:00;4.22;;;2.90;;
67861;SDS011;54665;51.462;6.698;2023-05-07T11:21:38;4.03;;;2.80;;
67861;SDS011;54665;51.462;6.698;2023-05-07T11:24:25;4.05;;;2.75;;
67861;SDS011;54665;51.462;6.698;2023-05-07T11:27:02;4.93;;;2.90;;
67861;SDS011;54665;51.462;6.698;2023-05-07T11:29:29;3.75;;;2.50;;
67861;SDS011;54665;51.462;6.698;2023-05-07T11:32:02;4.88;;;3.03;;
67861;SDS011;54665;51.462;6.698;2023-05-07T11:34:33;4.00;;;2.72;;
67861;SDS011;54665;51.462;6.698;2023-05-07T11:36:59;4.80;;;3.03;;
67861;SDS011;54665;51.462;6.698;2023-05-07T11:39:50;4.30;;;2.80;;
67861;SDS011;54665;51.462;6.698;2023-05-07T11:42:31;4.95;;;2.70;;
67861;SDS011;54665;51.462;6.698;2023-05-07T11:45:00;3.83;;;2.40;;
67861;SDS011;54665;51.462;6.698;2023-05-07T11:47:29;4.43;;;2.70;;
67861;SDS011;54665;51.462;6.698;2023-05-07T11:49:55;3.58;;;2.50;;
67861;SDS011;54665;51.462;6.698;2023-05-07T11:52:21;3.70;;;2.63;;
67861;SDS011;54665;51.462;6.698;2023-05-07T11:54:49;5.22;;;2.72;;
67861;SDS011;54665;51.462;6.698;2023-05-07T11:57:18;3.58;;;2.67;;
67861;SDS011;54665;51.462;6.698;2023-05-07T11:59:44;3.77;;;2.50;;
67861;SDS011;54665;51.462;6.698;2023-05-07T12:02:13;3.28;;;2.50;;
67861;SDS011;54665;51.462;6.698;2023-05-07T12:04:39;3.38;;;2.50;;
67861;SDS011;54665;51.462;6.698;2023-05-07T12:07:04;4.87;;;2.30;;
67861;SDS011;54665;51.462;6.698;2023-05-07T12:09:32;4.27;;;2.43;;
67861;SDS011;54665;51.462;6.698;2023-05-07T12:12:03;3.92;;;2.50;;
67861;SDS011;54665;51.462;6.698;2023-05-07T12:14:29;4.57;;;2.78;;
67861;SDS011;54665;51.462;6.698;2023-05-07T12:16:55;5.53;;;2.60;;
67861;SDS011;54665;51.462;6.698;2023-05-07T12:19:20;5.27;;;2.40;;
67861;SDS011;54665;51.462;6.698;2023-05-07T12:21:46;4.18;;;2.35;;
67861;SDS011;54665;51.462;6.698;2023-05-07T12:24:13;3.43;;;2.10;;
67861;SDS011;54665;51.462;6.698;2023-05-07T12:26:39;5.75;;;2.35;;
67861;SDS011;54665;51.462;6.698;2023-05-07T12:29:06;5.15;;;2.42;;
67861;SDS011;54665;51.462;6.698;2023-05-07T12:31:31;4.60;;;2.60;;
67861;SDS011;54665;51.462;6.698;2023-05-07T12:33:57;3.58;;;2.65;;
67861;SDS011;54665;51.462;6.698;2023-05-07T12:36:22;4.40;;;2.80;;
67861;SDS011;54665;51.462;6.698;2023-05-07T12:38:49;3.90;;;2.80;;
67861;SDS011;54665;51.462;6.698;2023-05-07T12:41:14;5.95;;;2.65;;
67861;SDS011;54665;51.462;6.698;2023-05-07T12:43:43;3.92;;;2.42;;
67861;SDS011;54665;51.462;6.698;2023-05-07T12:46:09;4.30;;;2.57;;
67861;SDS011;54665;51.462;6.698;2023-05-07T12:48:38;3.33;;;2.42;;
67861;SDS011;54665;51.462;6.698;2023-05-07T12:51:08;5.53;;;2.55;;
67861;SDS011;54665;51.462;6.698;2023-05-07T12:53:39;3.63;;;2.50;;
67861;SDS011;54665;51.462;6.698;2023-05-07T12:56:05;5.07;;;2.70;;
67861;SDS011;54665;51.462;6.698;2023-05-07T12:58:33;4.47;;;2.50;;
67861;SDS011;54665;51.462;6.698;2023-05-07T13:01:00;5.25;;;2.58;;
67861;SDS011;54665;51.462;6.698;2023-05-07T13:03:29;3.42;;;2.20;;
67861;SDS011;54665;51.462;6.698;2023-05-07T13:05:57;3.47;;;2.10;;
67861;SDS011;54665;51.462;6.698;2023-05-07T13:08:25;4.00;;;2.40;;
67861;SDS011;54665;51.462;6.698;2023-05-07T13:10:51;4.68;;;2.70;;
67861;SDS011;54665;51.462;6.698;2023-05-07T13:13:17;4.53;;;2.60;;
67861;SDS011;54665;51.462;6.698;2023-05-07T13:15:42;6.73;;;3.07;;
67861;SDS011;54665;51.462;6.698;2023-05-07T13:18:08;9.83;;;3.53;;
67861;SDS011;54665;51.462;6.698;2023-05-07T13:20:35;8.88;;;3.83;;
67861;SDS011;54665;51.462;6.698;2023-05-07T13:23:00;7.13;;;3.30;;
67861;SDS011;54665;51.462;6.698;2023-05-07T13:25:27;7.90;;;3.60;;
67861;SDS011;54665;51.462;6.698;2023-05-07T13:27:52;6.27;;;3.17;;
67861;SDS011;54665;51.462;6.698;2023-05-07T13:30:17;7.87;;;2.97;;
67861;SDS011;54665;51.462;6.698;2023-05-07T13:32:43;5.73;;;2.97;;
67861;SDS011;54665;51.462;6.698;2023-05-07T13:35:08;4.65;;;3.00;;
67861;SDS011;54665;51.462;6.698;2023-05-07T13:37:34;5.30;;;3.30;;
67861;SDS011;54665;51.462;6.698;2023-05-07T13:39:59;4.83;;;3.03;;
67861;SDS011;54665;51.462;6.698;2023-05-07T13:42:25;8.77;;;5.25;;
67861;SDS011;54665;51.462;6.698;2023-05-07T13:44:50;6.67;;;4.13;;
67861;SDS011;54665;51.462;6.698;2023-05-07T13:47:16;5.70;;;3.60;;
67861;SDS011;54665;51.462;6.698;2023-05-07T13:49:41;5.70;;;3.80;;
67861;SDS011;54665;51.462;6.698;2023-05-07T13:52:06;4.90;;;3.30;;
67861;SDS011;54665;51.462;6.698;2023-05-07T13:54:32;6.80;;;3.70;;
67861;SDS011;54665;51.462;6.698;2023-05-07T13:56:57;5.90;;;3.50;;
67861;SDS011;54665;51.462;6.698;2023-05-07T13:59:23;6.33;;;3.57;;
67861;SDS011;54665;51.462;6.698;2023-05-07T14:01:48;6.82;;;3.60;;
67861;SDS011;54665;51.462;6.698;2023-05-07T14:04:14;6.33;;;3.83;;
67861;SDS011;54665;51.462;6.698;2023-05-07T14:06:40;6.28;;;3.75;;
67861;SDS011;54665;51.462;6.698;2023-05-07T14:09:05;7.43;;;3.90;;
67861;SDS011;54665;51.462;6.698;2023-05-07T14:11:30;5.90;;;3.40;;
67861;SDS011;54665;51.462;6.698;2023-05-07T14:13:56;5.97;;;3.40;;
67861;SDS011;54665;51.462;6.698;2023-05-07T14:16:22;6.75;;;3.63;;
67861;SDS011;54665;51.462;6.698;2023-05-07T14:18:47;6.33;;;3.90;;
67861;SDS011;54665;51.462;6.698;2023-05-07T14:21:12;6.80;;;3.90;;
67861;SDS011;54665;51.462;6.698;2023-05-07T14:23:38;6.70;;;3.80;;
67861;SDS011;54665;51.462;6.698;2023-05-07T14:26:04;6.93;;;3.97;;
67861;SDS011;54665;51.462;6.698;2023-05-07T14:28:29;7.87;;;4.27;;
67861;SDS011;54665;51.462;6.698;2023-05-07T14:30:55;6.63;;;4.10;;
67861;SDS011;54665;51.462;6.698;2023-05-07T14:33:20;7.03;;;4.20;;
67861;SDS011;54665;51.462;6.698;2023-05-07T14:35:46;6.40;;;4.13;;
67861;SDS011;54665;51.462;6.698;2023-05-07T14:38:13;6.22;;;3.90;;
67861;SDS011;54665;51.462;6.698;2023-05-07T14:40:39;6.18;;;3.50;;
67861;SDS011;54665;51.462;6.698;2023-05-07T14:43:05;6.33;;;3.60;;
67861;SDS011;54665;51.462;6.698;2023-05-07T14:45:30;6.40;;;4.20;;
67861;SDS011;54665;51.462;6.698;2023-05-07T14:47:55;11.97;;;4.80;;
67861;SDS011;54665;51.462;6.698;2023-05-07T14:50:21;9.27;;;5.00;;